Rechercher aéroport 
image banner adimage banner adimage banner ad
image banner ad

95CL - Verdugo Hills Hospital

Situé à Glendale, United States

ICAO - 95CL, IATA -

Données fournies par Airmate  

Information générale

Coordonnées: N34°12'15" W118°13'2"
Élévation : 1430 feet MSL.
Variation magnétique : 14° East
Voir autres Aéroports à California

Données opérationnelles

Special qualification required
Heure actuelle UTC:
Heure actuelle locale:
Météo à : KBUR - Bob Hope ( 13 km )
METAR: KBUR 251453Z 15006KT 8SM CLR 19/16 A2999 RMK AO2 SLP144 T01940156 53012 $
TAF: KBUR 251158Z 2512/2612 13006KT P6SM BKN150 FM251900 18010KT P6SM BKN120 FM260400 14006KT P6SM BKN120 FM260900 VRB03KT P6SM VCSH OVC100
Voir NOTAMs / SUP AIP / TFR affectant cet aéroport [VIEW]
Fréquences de communication: [VIEW]

Pistes:

Coordonnées de l'aéroport

Adresse: Glendale United States

Vue satellite de 95CL